Aérodrome :
LOGIN :

S'inscrire | Disclaimer

   EN    FR    IT 

 










Légende :    VFR   VFR Marginal   IFR   IFR Intensif   IFR Très Intensif
Visi : 
Plafond : 
>= 8 km
>= 3000ft
5 à 8 km
1000 à 3000 ft
1500m à 5 km
500 à 1000 ft
800 à 1500m
200 à 500 ft
< 800m
< 200 ft
Symboles :   Orages  Brouillard  Fortes neiges  Fortes précipitations  Vent > 20 kt
SIGMETs :   Divers  Orages  Givrage  Turbulence  Onde Orograph.  Cendres Volcan.







- Altitude de l'aérodrome : 290 ft
- Code IATA : LAI
- Voir les cartes d'approche


LFRO - Lannion

DERNIER METAR :
  • 230700Z AUTO 27016KT 7000 -DZ FEW015 BKN021 OVC026 10/08 Q1000 TEMPO 4000 SHRA BKN013

METARs EXPIRÉS :
  • 230630Z AUTO 27017KT 9999 BKN014/// OVC020/// ///TCU 11/09 Q0999 TEMPO 4000 SHRA BECMG BKN016
  • 230600Z AUTO 27017KT 7000 -RA BKN008/// BKN016/// BKN024/// ///TCU 11/10 Q0998 TEMPO 4000 SHRA BKN013
  • 230530Z AUTO 23015KT 9999 BKN016/// BKN024/// OVC030/// ///TCU 13/10 Q0997 TEMPO 4000 SHRA BKN013
  • 230500Z AUTO 22017KT 9999 SCT017 BKN033 BKN039 13/11 Q0996
  • 230430Z AUTO 22016KT 9999 BKN016 OVC028 13/11 Q0996

TAF TAF LFRO
Valide du 23 à 06h jusqu'au 24 à 06h UTC


230500Z 2306/2406 22016KT 9999 BKN016
TEMPO 2306/2308 4000 SHRA BKN013
BECMG 2317/2320 18025G35KT 3000 RA BR OVC010 FEW012CB
BECMG 2401/2403 30015KT 9999 NSW SCT020
TEMPO 2402/2404 30020G35KT SHRA BKN012CB
Pas de NOTAMs connus pour ce terrain.



MET'MAP, la Météo Aéronautique d'un coup d'oeil ! - Copyright ORBIFLY Décembre 2007 - Disclaimer

ORBIFLY MET'MAP TEAM :

Programmation & Développement : Alexandra Zaïnal
Conception & Développement : Baudouin d'Aumeries
Co-Programmation & Développement : Marc-Olivier Méhu
Soutien technique & logistique : Manuel Goepfert

Contact : metmap@orbifly.com




SOURCES & CREDITS :

   NOAA